createdAt,value
2019-03-12T00:00:11.256Z,94.18
2019-03-12T00:01:11.141Z,94.64
2019-03-12T00:02:11.131Z,94.54
2019-03-12T00:03:11.158Z,95.17
2019-03-12T00:04:11.207Z,95.37
2019-03-12T00:05:11.116Z,95.06
2019-03-12T00:06:11.126Z,95.17
2019-03-12T00:07:11.141Z,95.27
2019-03-12T00:08:11.085Z,95.12
2019-03-12T00:09:11.087Z,95.02
2019-03-12T00:10:11.053Z,95.17
2019-03-12T00:11:11.077Z,95.23
2019-03-12T00:12:11.020Z,95.02
2019-03-12T00:13:11.054Z,94.96
2019-03-12T00:14:11.084Z,94.69
2019-03-12T00:15:11.050Z,95.10
2019-03-12T00:16:11.001Z,95.52
2019-03-12T00:17:10.965Z,96.00
2019-03-12T00:18:10.959Z,96.21
2019-03-12T00:19:11.071Z,96.21
2019-03-12T00:20:10.947Z,96.11
2019-03-12T00:21:11.112Z,95.89
2019-03-12T00:22:10.919Z,95.37
2019-03-12T00:23:11.052Z,95.54
2019-03-12T00:24:10.911Z,95.33
2019-03-12T00:25:10.901Z,95.12
2019-03-12T00:26:10.882Z,95.17
2019-03-12T00:27:10.942Z,95.27
2019-03-12T00:28:10.885Z,95.33
2019-03-12T00:29:10.855Z,95.43
2019-03-12T00:30:10.906Z,94.81
2019-03-12T00:31:10.861Z,95.12
2019-03-12T00:32:10.843Z,94.56
2019-03-12T00:33:10.903Z,93.93
2019-03-12T00:34:10.835Z,93.93
2019-03-12T00:35:10.795Z,93.83
2019-03-12T00:36:10.795Z,93.52
2019-03-12T00:37:10.759Z,93.41
2019-03-12T00:38:10.761Z,93.31
2019-03-12T00:39:10.732Z,94.18
2019-03-12T00:40:10.789Z,94.92
2019-03-12T00:41:10.765Z,95.02
2019-03-12T00:42:10.760Z,94.70
2019-03-12T00:43:10.733Z,94.81
2019-03-12T00:44:10.741Z,94.81
2019-03-12T00:45:10.691Z,94.43
2019-03-12T00:46:10.689Z,95.12
2019-03-12T00:47:10.654Z,95.23
2019-03-12T00:48:10.824Z,95.43
2019-03-12T00:49:10.636Z,95.43
2019-03-12T00:50:10.762Z,95.43
2019-03-12T00:51:10.701Z,95.75
2019-03-12T00:52:10.619Z,95.75
2019-03-12T00:53:10.599Z,95.64
2019-03-12T00:54:10.584Z,95.33
2019-03-12T00:55:10.611Z,95.23
2019-03-12T00:56:10.591Z,95.23
2019-03-12T00:57:10.571Z,95.33
2019-03-12T00:58:10.567Z,95.33
2019-03-12T00:59:10.599Z,95.23
2019-03-12T01:00:10.544Z,95.37
2019-03-12T01:01:10.532Z,95.33
2019-03-12T01:02:10.537Z,95.33
2019-03-12T01:03:10.541Z,95.54
2019-03-12T01:04:10.493Z,95.54
2019-03-12T01:05:10.524Z,95.23
2019-03-12T01:06:10.479Z,95.54
2019-03-12T01:07:10.456Z,95.02
2019-03-12T01:08:10.453Z,94.66
2019-03-12T01:09:10.501Z,94.66
2019-03-12T01:10:10.463Z,94.66
2019-03-12T01:11:10.729Z,94.76
2019-03-12T01:12:10.421Z,93.73
2019-03-12T01:13:10.417Z,93.62
2019-03-12T01:14:10.367Z,93.62
2019-03-12T01:15:10.384Z,93.05
2019-03-12T01:16:10.369Z,93.31
2019-03-12T01:17:10.353Z,93.37
2019-03-12T01:18:13.588Z,93.27
2019-03-12T01:19:10.345Z,93.41
2019-03-12T01:20:10.314Z,93.41
2019-03-12T01:21:10.348Z,93.48
2019-03-12T01:22:10.315Z,93.48
2019-03-12T01:23:10.280Z,93.48
2019-03-12T01:24:10.277Z,93.58
2019-03-12T01:25:10.276Z,93.37
2019-03-12T01:26:10.300Z,93.37
2019-03-12T01:27:10.264Z,93.05
2019-03-12T01:28:10.250Z,93.16
2019-03-12T01:29:11.274Z,92.64
2019-03-12T01:30:10.241Z,93.52
2019-03-12T01:31:10.197Z,93.62
2019-03-12T01:32:10.231Z,92.89
2019-03-12T01:33:10.197Z,93.31
2019-03-12T01:34:10.163Z,93.20
2019-03-12T01:35:10.182Z,93.62
2019-03-12T01:36:10.178Z,93.10
2019-03-12T01:37:10.161Z,93.31
2019-03-12T01:38:10.126Z,92.89
2019-03-12T01:39:10.149Z,93.31
2019-03-12T01:40:10.118Z,93.62
2019-03-12T01:41:10.103Z,93.46
2019-03-12T01:42:10.155Z,93.35
2019-03-12T01:43:10.079Z,93.46
2019-03-12T01:44:10.069Z,94.29
2019-03-12T01:45:10.068Z,94.70
2019-03-12T01:46:10.065Z,94.96
2019-03-12T01:47:10.099Z,94.96
2019-03-12T01:48:10.054Z,95.06
2019-03-12T01:49:10.065Z,95.37
2019-03-12T01:50:10.021Z,96.00
2019-03-12T01:51:10.123Z,96.11
2019-03-12T01:52:10.037Z,96.11
2019-03-12T01:53:09.983Z,96.21
2019-03-12T01:54:09.966Z,96.06
2019-03-12T01:55:09.956Z,96.11
2019-03-12T01:56:09.999Z,96.21
2019-03-12T01:57:09.936Z,96.21
2019-03-12T01:58:09.940Z,96.11
2019-03-12T01:59:09.943Z,95.62
2019-03-12T02:00:09.959Z,95.62
2019-03-12T02:01:09.944Z,96.25
2019-03-12T02:02:09.962Z,97.25
2019-03-12T02:03:09.885Z,97.00
2019-03-12T02:04:09.869Z,96.16
2019-03-12T02:05:09.840Z,96.31
2019-03-12T02:06:09.860Z,96.06
2019-03-12T02:07:09.871Z,95.95
2019-03-12T02:08:09.862Z,95.68
2019-03-12T02:09:09.888Z,95.95
2019-03-12T02:10:09.828Z,95.64
2019-03-12T02:11:09.783Z,96.26
2019-03-12T02:12:09.824Z,96.06
2019-03-12T02:13:09.777Z,96.52
2019-03-12T02:14:09.747Z,96.00
2019-03-12T02:15:09.829Z,96.16
2019-03-12T02:16:09.858Z,95.95
2019-03-12T02:17:09.806Z,96.06
2019-03-12T02:18:09.713Z,96.37
2019-03-12T02:19:09.768Z,96.42
2019-03-12T02:20:09.779Z,96.06
2019-03-12T02:21:09.684Z,96.83
2019-03-12T02:22:09.723Z,96.69
2019-03-12T02:23:09.680Z,96.69
2019-03-12T02:24:09.664Z,96.83
2019-03-12T02:25:09.634Z,96.83
2019-03-12T02:26:09.624Z,96.94
2019-03-12T02:27:09.722Z,97.14
2019-03-12T02:28:09.720Z,96.94
2019-03-12T02:29:09.590Z,97.14
2019-03-12T02:30:09.646Z,97.25
2019-03-12T02:31:09.619Z,97.00
2019-03-12T02:32:09.572Z,96.89
2019-03-12T02:33:09.603Z,97.10
2019-03-12T02:34:09.862Z,96.58
2019-03-12T02:35:09.580Z,96.16
2019-03-12T02:36:09.573Z,96.37
2019-03-12T02:37:09.544Z,96.16
2019-03-12T02:38:09.626Z,96.06
2019-03-12T02:39:09.540Z,95.95
2019-03-12T02:40:09.637Z,96.06
2019-03-12T02:41:09.477Z,95.64
2019-03-12T02:42:12.402Z,96.16
2019-03-12T02:43:09.498Z,95.27
2019-03-12T02:44:09.438Z,95.68
2019-03-12T02:45:09.548Z,96.31
2019-03-12T02:46:09.454Z,96.31
2019-03-12T02:47:09.441Z,96.06
2019-03-12T02:48:09.428Z,95.75
2019-03-12T02:49:10.308Z,95.70
2019-03-12T02:50:09.391Z,95.39
2019-03-12T02:51:09.392Z,94.87
2019-03-12T02:52:09.391Z,94.31
2019-03-12T02:53:09.377Z,93.79
2019-03-12T02:54:09.346Z,93.48
2019-03-12T02:55:09.344Z,93.58
2019-03-12T02:56:09.323Z,92.95
2019-03-12T02:57:09.301Z,92.80
2019-03-12T02:58:09.486Z,93.01
2019-03-12T02:59:09.329Z,93.01
2019-03-12T03:00:09.319Z,93.12
2019-03-12T03:01:09.265Z,92.60
2019-03-12T03:02:09.350Z,92.91
2019-03-12T03:03:09.259Z,92.91
2019-03-12T03:04:09.341Z,93.54
2019-03-12T03:05:09.263Z,93.43
2019-03-12T03:06:09.254Z,93.43
2019-03-12T03:07:09.245Z,92.95
2019-03-12T03:08:09.269Z,93.33
2019-03-12T03:09:09.183Z,93.43
2019-03-12T03:10:09.284Z,93.54
2019-03-12T03:11:09.177Z,92.80
2019-03-12T03:12:09.165Z,93.27
2019-03-12T03:13:09.177Z,93.12
2019-03-12T03:14:09.150Z,93.43
2019-03-12T03:15:09.151Z,91.93
2019-03-12T03:16:09.109Z,92.18
2019-03-12T03:17:09.171Z,92.18
2019-03-12T03:18:09.148Z,92.08
2019-03-12T03:19:09.172Z,92.18
2019-03-12T03:20:09.061Z,91.81
2019-03-12T03:21:09.055Z,91.46
2019-03-12T03:22:09.127Z,91.25
2019-03-12T03:23:09.087Z,91.56
2019-03-12T03:24:09.052Z,91.46
2019-03-12T03:25:09.057Z,91.35
2019-03-12T03:26:09.010Z,92.18
2019-03-12T03:27:09.008Z,91.77
2019-03-12T03:28:09.058Z,91.87
2019-03-12T03:29:08.975Z,91.60
2019-03-12T03:30:09.080Z,91.91
2019-03-12T03:31:08.995Z,92.22
2019-03-12T03:32:08.990Z,91.64
2019-03-12T03:33:08.976Z,92.62
2019-03-12T03:34:08.996Z,93.04
2019-03-12T03:35:08.928Z,93.56
2019-03-12T03:36:08.934Z,92.93
2019-03-12T03:37:08.900Z,93.29
2019-03-12T03:38:09.032Z,94.08
2019-03-12T03:39:08.868Z,94.23
2019-03-12T03:40:08.869Z,94.33
2019-03-12T03:41:08.989Z,93.96
2019-03-12T03:42:08.837Z,93.54
2019-03-12T03:43:08.855Z,94.90
2019-03-12T03:44:08.819Z,95.27
2019-03-12T03:45:08.938Z,94.54
2019-03-12T03:46:08.876Z,94.02
2019-03-12T03:47:08.782Z,93.71
2019-03-12T03:48:08.810Z,94.33
2019-03-12T03:49:08.790Z,93.56
2019-03-12T03:50:08.839Z,93.71
2019-03-12T03:51:08.793Z,93.29
2019-03-12T03:52:08.865Z,93.54
2019-03-12T03:53:08.736Z,93.65
2019-03-12T03:54:08.740Z,93.44
2019-03-12T03:55:08.773Z,94.06
2019-03-12T03:56:08.697Z,94.21
2019-03-12T03:57:08.700Z,93.79
2019-03-12T03:58:08.783Z,94.63
2019-03-12T03:59:08.690Z,95.09
2019-03-12T04:00:08.694Z,95.25
2019-03-12T04:01:08.674Z,93.69
2019-03-12T04:02:08.651Z,93.27
2019-03-12T04:03:08.652Z,93.59
2019-03-12T04:04:08.641Z,93.27
2019-03-12T04:05:08.597Z,91.64
2019-03-12T04:06:08.607Z,91.96
2019-03-12T04:07:08.634Z,92.27
2019-03-12T04:08:08.590Z,91.96
2019-03-12T04:09:08.604Z,93.25
2019-03-12T04:10:08.578Z,93.61
2019-03-12T04:11:08.667Z,93.82
2019-03-12T04:12:08.560Z,94.34
2019-03-12T04:13:08.513Z,93.86
2019-03-12T04:14:08.576Z,94.70
2019-03-12T04:15:08.526Z,94.38
2019-03-12T04:16:08.521Z,94.84
2019-03-12T04:17:08.522Z,95.47
2019-03-12T04:18:08.470Z,95.57
2019-03-12T04:19:08.456Z,95.89
2019-03-12T04:20:08.451Z,95.78
2019-03-12T04:21:08.459Z,95.62
2019-03-12T04:22:08.452Z,95.51
2019-03-12T04:23:08.403Z,95.51
2019-03-12T04:24:08.475Z,95.41
2019-03-12T04:25:08.389Z,95.45
2019-03-12T04:26:08.408Z,96.14
2019-03-12T04:27:08.441Z,96.25
2019-03-12T04:28:08.464Z,96.25
2019-03-12T04:29:08.407Z,95.66
2019-03-12T04:30:08.337Z,95.76
2019-03-12T04:31:08.401Z,96.35
2019-03-12T04:32:08.324Z,96.50
2019-03-12T04:33:08.336Z,97.02
2019-03-12T04:34:08.384Z,97.44
2019-03-12T04:35:08.290Z,97.65
2019-03-12T04:36:08.286Z,97.81
2019-03-12T04:37:08.289Z,98.29
2019-03-12T04:38:08.292Z,97.94
2019-03-12T04:39:08.252Z,97.52
2019-03-12T04:40:08.225Z,96.68
2019-03-12T04:41:08.276Z,96.47
2019-03-12T04:42:08.236Z,96.26
2019-03-12T04:43:08.242Z,95.38
2019-03-12T04:44:08.232Z,95.84
2019-03-12T04:45:08.168Z,95.80
2019-03-12T04:46:08.211Z,95.21
2019-03-12T04:47:08.249Z,95.43
2019-03-12T04:48:08.170Z,95.15
2019-03-12T04:49:08.217Z,94.74
2019-03-12T04:50:08.159Z,95.26
2019-03-12T04:51:08.111Z,94.89
2019-03-12T04:52:08.099Z,96.56
2019-03-12T04:53:08.148Z,96.62
2019-03-12T04:54:08.229Z,96.94
2019-03-12T04:55:08.119Z,96.89
2019-03-12T04:56:08.064Z,97.00
2019-03-12T04:57:08.070Z,96.84
2019-03-12T04:58:08.039Z,96.28
2019-03-12T04:59:08.073Z,95.19
2019-03-12T05:00:08.056Z,93.73
2019-03-12T05:01:08.009Z,92.96
2019-03-12T05:02:08.000Z,92.22
2019-03-12T05:03:07.985Z,91.71
2019-03-12T05:04:08.010Z,91.25
2019-03-12T05:05:07.999Z,90.52
2019-03-12T05:06:07.968Z,90.62
2019-03-12T05:07:07.965Z,89.89
2019-03-12T05:08:07.961Z,89.58
2019-03-12T05:09:07.964Z,89.68
2019-03-12T05:10:07.981Z,90.10
2019-03-12T05:11:07.926Z,90.03
2019-03-12T05:12:07.916Z,90.56
2019-03-12T05:13:07.893Z,90.87
2019-03-12T05:14:07.891Z,91.08
2019-03-12T05:15:07.922Z,90.20
2019-03-12T05:16:07.917Z,89.16
2019-03-12T05:17:07.869Z,88.75
2019-03-12T05:18:07.962Z,88.53
2019-03-12T05:19:07.870Z,88.22
2019-03-12T05:20:07.826Z,88.37
2019-03-12T05:21:07.827Z,88.68
2019-03-12T05:22:07.868Z,88.72
2019-03-12T05:23:07.795Z,88.30
2019-03-12T05:24:07.768Z,89.76
2019-03-12T05:25:07.773Z,90.85
2019-03-12T05:26:07.764Z,88.97
2019-03-12T05:27:07.752Z,90.22
2019-03-12T05:28:07.769Z,90.43
2019-03-12T05:29:07.748Z,91.02
2019-03-12T05:30:07.725Z,90.81
2019-03-12T05:31:07.711Z,90.28
2019-03-12T05:32:07.721Z,89.31
2019-03-12T05:33:07.713Z,88.32
2019-03-12T05:34:07.663Z,87.39
2019-03-12T05:35:07.673Z,87.18
2019-03-12T05:36:07.661Z,87.07
2019-03-12T05:37:07.644Z,86.97
2019-03-12T05:38:07.646Z,87.53
2019-03-12T05:39:07.632Z,88.16
2019-03-12T05:40:07.617Z,88.51
2019-03-12T05:41:07.664Z,88.20
2019-03-12T05:42:07.665Z,88.30
2019-03-12T05:43:07.733Z,88.72
2019-03-12T05:44:07.630Z,87.78
2019-03-12T05:45:07.570Z,88.76
2019-03-12T05:46:07.574Z,88.87
2019-03-12T05:47:08.351Z,88.76
2019-03-12T05:48:07.552Z,88.59
2019-03-12T05:49:07.517Z,89.32
2019-03-12T05:50:07.521Z,89.68
2019-03-12T05:51:07.487Z,90.83
2019-03-12T05:52:07.527Z,92.29
2019-03-12T05:53:07.487Z,92.33
2019-03-12T05:54:07.530Z,92.65
2019-03-12T05:55:07.599Z,92.27
2019-03-12T05:56:07.465Z,92.27
2019-03-12T05:57:07.476Z,92.90
2019-03-12T05:58:07.440Z,93.74
2019-03-12T05:59:07.442Z,94.01
2019-03-12T06:00:07.538Z,93.61
2019-03-12T06:01:07.431Z,92.29
2019-03-12T06:02:07.409Z,91.14
2019-03-12T06:03:07.393Z,92.08
2019-03-12T06:04:07.417Z,91.50
2019-03-12T06:05:07.361Z,92.44
2019-03-12T06:06:07.392Z,92.06
2019-03-12T06:07:07.457Z,92.06
2019-03-12T06:08:07.330Z,92.79
2019-03-12T06:09:07.344Z,92.16
2019-03-12T06:10:07.323Z,92.31
2019-03-12T06:11:07.327Z,92.57
2019-03-12T06:12:07.329Z,93.08
2019-03-12T06:13:07.336Z,94.03
2019-03-12T06:14:07.271Z,94.03
2019-03-12T06:15:07.350Z,94.24
2019-03-12T06:16:07.252Z,94.56
2019-03-12T06:17:07.343Z,95.50
2019-03-12T06:18:07.236Z,96.50
2019-03-12T06:19:07.287Z,96.56
2019-03-12T06:20:07.224Z,96.41
2019-03-12T06:21:07.227Z,95.07
2019-03-12T06:22:07.228Z,93.67
2019-03-12T06:23:07.176Z,93.31
2019-03-12T06:24:07.152Z,92.27
2019-03-12T06:25:07.163Z,91.96
2019-03-12T06:26:07.208Z,91.96
2019-03-12T06:27:07.122Z,92.27
2019-03-12T06:28:07.181Z,91.60
2019-03-12T06:29:07.119Z,90.62
2019-03-12T06:30:07.086Z,90.83
2019-03-12T06:31:07.101Z,89.32
2019-03-12T06:32:07.134Z,88.81
2019-03-12T06:33:07.148Z,87.20
2019-03-12T06:34:07.155Z,86.33
2019-03-12T06:35:07.036Z,85.38
2019-03-12T06:36:07.166Z,83.70
2019-03-12T06:37:07.049Z,79.85
2019-03-12T06:38:07.096Z,77.29
2019-03-12T06:39:06.995Z,76.88
2019-03-12T06:40:07.008Z,76.50
2019-03-12T06:41:07.202Z,75.98
2019-03-12T06:42:08.044Z,76.74
2019-03-12T06:43:06.956Z,76.84
2019-03-12T06:44:07.115Z,77.36
2019-03-12T06:45:06.946Z,76.95
2019-03-12T06:46:06.956Z,76.19
2019-03-12T06:47:07.018Z,75.53
2019-03-12T06:48:06.921Z,74.91
2019-03-12T06:49:06.948Z,74.12
2019-03-12T06:50:06.908Z,72.50
2019-03-12T06:51:06.937Z,72.06
2019-03-12T06:52:07.050Z,70.78
2019-03-12T06:53:06.885Z,69.59
2019-03-12T06:54:06.867Z,67.18
2019-03-12T06:55:06.870Z,66.84
2019-03-12T06:56:06.966Z,66.50
2019-03-12T06:57:06.812Z,65.17
2019-03-12T06:58:06.812Z,63.17
2019-03-12T06:59:06.798Z,63.10
2019-03-12T07:00:06.847Z,59.38
2019-03-12T07:01:08.158Z,59.16
2019-03-12T07:02:06.779Z,59.54
2019-03-12T07:03:06.863Z,59.59
2019-03-12T07:04:06.751Z,61.62
2019-03-12T07:05:06.737Z,61.32
2019-03-12T07:06:06.785Z,60.98
2019-03-12T07:07:11.032Z,60.54
2019-03-12T07:08:06.777Z,59.85
2019-03-12T07:09:06.792Z,60.42
2019-03-12T07:10:06.673Z,62.58
2019-03-12T07:11:06.682Z,61.98
2019-03-12T07:12:06.674Z,60.05
2019-03-12T07:13:06.639Z,60.70
2019-03-12T07:14:06.635Z,60.80
2019-03-12T07:15:06.694Z,60.73
2019-03-12T07:16:06.646Z,60.80
2019-03-12T07:17:06.668Z,60.01
2019-03-12T07:18:06.637Z,60.08
2019-03-12T07:19:06.605Z,60.57
2019-03-12T07:20:06.584Z,60.36
2019-03-12T07:21:06.585Z,61.21
2019-03-12T07:22:06.667Z,61.94
2019-03-12T07:23:06.562Z,63.99
2019-03-12T07:24:06.609Z,65.42
2019-03-12T07:25:06.572Z,67.17
2019-03-12T07:26:06.533Z,65.84
2019-03-12T07:27:06.531Z,66.58
2019-03-12T07:28:06.486Z,64.15
2019-03-12T07:29:06.472Z,61.14
2019-03-12T07:30:06.602Z,63.71
2019-03-12T07:31:06.519Z,60.10
2019-03-12T07:32:06.503Z,59.74
2019-03-12T07:33:06.459Z,55.97
2019-03-12T07:34:06.621Z,55.87
2019-03-12T07:35:06.529Z,55.51
2019-03-12T07:36:06.431Z,55.64
2019-03-12T07:37:06.418Z,55.64
2019-03-12T07:38:06.440Z,55.33
2019-03-12T07:39:06.369Z,55.74
2019-03-12T07:40:06.362Z,55.62
2019-03-12T07:41:06.470Z,53.77
2019-03-12T07:42:06.412Z,55.66
2019-03-12T07:43:06.403Z,55.33
2019-03-12T07:44:06.465Z,52.14
2019-03-12T07:45:06.309Z,52.93
2019-03-12T07:46:06.339Z,52.27
2019-03-12T07:47:06.375Z,51.15
2019-03-12T07:48:06.362Z,52.17
2019-03-12T07:49:06.282Z,51.43
2019-03-12T07:50:06.264Z,49.78
2019-03-12T07:51:06.314Z,50.24
2019-03-12T07:52:08.603Z,49.81
2019-03-12T07:53:06.231Z,47.86
2019-03-12T07:54:06.205Z,47.86
2019-03-12T07:55:06.192Z,46.76
2019-03-12T07:56:06.193Z,47.50
2019-03-12T07:57:06.213Z,47.98
2019-03-12T07:58:06.162Z,46.70
2019-03-12T07:59:08.877Z,46.97
2019-03-12T08:00:06.200Z,47.95
2019-03-12T08:01:06.138Z,49.75
2019-03-12T08:02:06.149Z,49.54
2019-03-12T08:03:06.124Z,53.85
2019-03-12T08:04:06.221Z,52.80
2019-03-12T08:05:06.089Z,51.62
2019-03-12T08:06:06.121Z,55.13
2019-03-12T08:07:06.109Z,54.05
2019-03-12T08:08:06.383Z,53.90
2019-03-12T08:09:06.058Z,59.30
2019-03-12T08:10:06.043Z,55.82
2019-03-12T08:11:06.048Z,58.89
2019-03-12T08:12:06.036Z,56.82
2019-03-12T08:13:06.024Z,55.56
2019-03-12T08:14:06.016Z,52.72
2019-03-12T08:15:06.001Z,54.87
2019-03-12T08:16:06.014Z,59.04
2019-03-12T08:17:05.981Z,55.82
2019-03-12T08:18:06.205Z,57.35
2019-03-12T08:19:05.955Z,58.84
2019-03-12T08:20:05.979Z,54.31
2019-03-12T08:21:06.014Z,55.23
2019-03-12T08:22:05.955Z,55.62
2019-03-12T08:23:05.906Z,54.08
2019-03-12T08:24:05.936Z,53.69
2019-03-12T08:25:05.895Z,52.98
2019-03-12T08:26:05.969Z,54.64
2019-03-12T08:27:05.858Z,53.16
2019-03-12T08:28:05.904Z,51.99
2019-03-12T08:29:05.859Z,51.61
2019-03-12T08:30:05.832Z,49.24
2019-03-12T08:31:05.808Z,52.04
2019-03-12T08:32:05.887Z,50.95
2019-03-12T08:33:05.857Z,53.24
2019-03-12T08:34:05.817Z,45.95
2019-03-12T08:35:05.779Z,45.07
2019-03-12T08:36:05.802Z,44.46
2019-03-12T08:37:05.747Z,45.54
2019-03-12T08:38:05.894Z,47.46
2019-03-12T08:39:05.767Z,47.01
2019-03-12T08:40:05.714Z,47.39
2019-03-12T08:41:05.709Z,45.01
2019-03-12T08:42:05.763Z,46.58
2019-03-12T08:43:05.689Z,45.01
2019-03-12T08:44:05.684Z,46.55
2019-03-12T08:45:05.678Z,46.47
2019-03-12T08:46:05.669Z,51.17
2019-03-12T08:47:05.689Z,49.46
2019-03-12T08:48:05.668Z,52.83
2019-03-12T08:49:05.615Z,47.69
2019-03-12T08:50:05.623Z,50.19
2019-03-12T08:51:05.614Z,49.76
2019-03-12T08:52:05.587Z,43.43
2019-03-12T08:53:05.581Z,44.92
2019-03-12T08:54:05.576Z,46.55
2019-03-12T08:55:05.648Z,46.64
2019-03-12T08:56:05.539Z,45.73
2019-03-12T08:57:05.535Z,44.53
2019-03-12T08:58:05.539Z,46.14
2019-03-12T08:59:05.515Z,44.10
2019-03-12T09:00:05.498Z,47.87
2019-03-12T09:01:05.694Z,44.89
2019-03-12T09:02:05.493Z,43.69
2019-03-12T09:03:05.514Z,43.29
2019-03-12T09:04:05.497Z,42.98
2019-03-12T09:05:05.464Z,43.49
2019-03-12T09:06:05.432Z,43.38
2019-03-12T09:07:05.512Z,42.16
2019-03-12T09:08:05.446Z,41.94
2019-03-12T09:09:05.485Z,43.30
2019-03-12T09:10:05.441Z,44.73
2019-03-12T09:11:05.376Z,44.89
2019-03-12T09:12:05.386Z,46.05
2019-03-12T09:13:05.451Z,46.06
2019-03-12T09:14:05.374Z,41.28
2019-03-12T09:15:05.409Z,41.86
2019-03-12T09:16:05.357Z,40.26
2019-03-12T09:17:05.348Z,40.18
2019-03-12T09:18:05.324Z,42.08
2019-03-12T09:19:05.294Z,43.06
2019-03-12T09:20:05.315Z,42.21
2019-03-12T09:21:05.276Z,45.92
2019-03-12T09:22:05.279Z,43.49
2019-03-12T09:23:05.283Z,45.25
2019-03-12T09:24:05.254Z,46.25
2019-03-12T09:25:05.241Z,45.40
2019-03-12T09:26:05.272Z,42.76
2019-03-12T09:27:05.214Z,41.97
2019-03-12T09:28:05.229Z,43.73
2019-03-12T09:29:05.258Z,44.02
2019-03-12T09:30:05.371Z,46.08
2019-03-12T09:31:05.183Z,45.26
2019-03-12T09:32:05.155Z,45.06
2019-03-12T09:33:05.162Z,44.22
2019-03-12T09:34:05.247Z,42.29
2019-03-12T09:35:05.136Z,43.38
2019-03-12T09:36:05.128Z,41.94
2019-03-12T09:37:05.145Z,44.04
2019-03-12T09:38:05.160Z,41.12
2019-03-12T09:39:05.150Z,44.79
2019-03-12T09:40:05.065Z,43.00
2019-03-12T09:41:05.111Z,43.41
2019-03-12T09:42:05.088Z,45.31
2019-03-12T09:43:05.106Z,42.00
2019-03-12T09:44:05.091Z,43.30
2019-03-12T09:45:05.019Z,39.26
2019-03-12T09:46:05.020Z,40.71
2019-03-12T09:47:05.010Z,43.63
2019-03-12T09:48:05.053Z,39.74
2019-03-12T09:49:04.992Z,39.64
2019-03-12T09:50:04.986Z,38.78
2019-03-12T09:51:04.950Z,40.99
2019-03-12T09:52:04.983Z,38.97
2019-03-12T09:53:05.010Z,38.09
2019-03-12T09:54:04.997Z,37.55
2019-03-12T09:55:05.200Z,41.12
2019-03-12T09:56:04.913Z,40.73
2019-03-12T09:57:04.980Z,41.30
2019-03-12T09:58:04.875Z,37.60
2019-03-12T09:59:04.910Z,39.03
2019-03-12T10:00:15.456Z,44.42
2019-03-12T10:01:05.888Z,39.37
2019-03-12T10:02:04.839Z,39.01
2019-03-12T10:03:04.896Z,40.89
2019-03-12T10:04:04.838Z,38.97
2019-03-12T10:05:04.933Z,36.78
2019-03-12T10:06:04.828Z,34.97
2019-03-12T10:07:04.797Z,36.80
2019-03-12T10:08:04.763Z,37.51
2019-03-12T10:09:04.792Z,35.07
2019-03-12T10:10:04.828Z,37.40
2019-03-12T10:11:04.756Z,36.85
2019-03-12T10:12:04.750Z,36.97
2019-03-12T10:13:04.742Z,39.87
2019-03-12T10:14:04.738Z,38.30
2019-03-12T10:15:04.746Z,42.07
2019-03-12T10:16:04.714Z,37.59
2019-03-12T10:17:04.728Z,36.71
2019-03-12T10:18:04.669Z,38.61
2019-03-12T10:19:04.705Z,36.27
2019-03-12T10:20:04.636Z,36.52
2019-03-12T10:21:04.728Z,39.09
2019-03-12T10:22:04.652Z,38.50
2019-03-12T10:23:04.605Z,36.53
2019-03-12T10:24:04.708Z,36.76
2019-03-12T10:25:04.585Z,38.00
2019-03-12T10:26:04.628Z,37.92
2019-03-12T10:27:04.560Z,40.64
2019-03-12T10:28:04.564Z,38.63
2019-03-12T10:29:04.719Z,39.22
2019-03-12T10:30:04.568Z,37.96
2019-03-12T10:31:04.525Z,40.50
2019-03-12T10:32:04.524Z,40.59
2019-03-12T10:33:04.570Z,38.64
2019-03-12T10:34:04.483Z,39.45
2019-03-12T10:35:04.490Z,41.40
2019-03-12T10:36:04.851Z,34.82
2019-03-12T10:37:11.847Z,37.35
2019-03-12T10:38:05.494Z,37.96
2019-03-12T10:39:04.475Z,37.88
2019-03-12T10:40:04.475Z,41.52
2019-03-12T10:41:04.409Z,38.47
2019-03-12T10:42:04.407Z,40.28
2019-03-12T10:43:04.407Z,39.37
2019-03-12T10:44:04.403Z,37.87
2019-03-12T10:45:04.627Z,39.79
2019-03-12T10:46:04.370Z,37.87
2019-03-12T10:47:04.423Z,36.66
2019-03-12T10:48:04.332Z,43.06
2019-03-12T10:49:04.329Z,41.72
2019-03-12T10:50:04.321Z,40.47
2019-03-12T10:51:04.336Z,38.82
2019-03-12T10:52:04.341Z,37.69
2019-03-12T10:53:04.516Z,38.70
2019-03-12T10:54:04.303Z,35.50
2019-03-12T10:55:12.814Z,39.33
2019-03-12T10:56:05.268Z,38.57
2019-03-12T10:57:04.242Z,34.14
2019-03-12T10:58:04.295Z,36.08
2019-03-12T10:59:04.270Z,37.73
2019-03-12T11:00:04.273Z,35.94
2019-03-12T11:01:04.209Z,38.68
2019-03-12T11:02:04.259Z,34.94
2019-03-12T11:03:04.213Z,37.68
2019-03-12T11:04:04.240Z,37.39
2019-03-12T11:05:04.207Z,36.71
2019-03-12T11:06:04.150Z,37.93
2019-03-12T11:07:15.843Z,38.14
2019-03-12T11:08:06.834Z,38.83
2019-03-12T11:09:04.100Z,38.00
2019-03-12T11:10:04.184Z,35.90
2019-03-12T11:11:04.083Z,36.41
2019-03-12T11:12:04.067Z,39.66
2019-03-12T11:13:04.192Z,39.46
2019-03-12T11:14:04.059Z,38.54
2019-03-12T11:15:04.283Z,40.54
2019-03-12T11:16:04.091Z,37.95
2019-03-12T11:17:04.020Z,37.15
2019-03-12T11:18:04.066Z,37.87
2019-03-12T11:19:04.083Z,37.12
2019-03-12T11:20:03.982Z,37.02
2019-03-12T11:21:04.033Z,38.06
2019-03-12T11:22:03.981Z,33.72
2019-03-12T11:23:04.114Z,39.26
2019-03-12T11:24:04.002Z,34.82
2019-03-12T11:25:03.938Z,31.61
2019-03-12T11:26:03.954Z,32.14
2019-03-12T11:27:04.071Z,40.12
2019-03-12T11:28:03.904Z,33.94
2019-03-12T11:29:03.889Z,36.17
2019-03-12T11:30:03.898Z,37.10
2019-03-12T11:31:03.900Z,38.48
2019-03-12T11:32:03.916Z,35.86
2019-03-12T11:33:03.862Z,38.06
2019-03-12T11:34:03.858Z,36.85
2019-03-12T11:35:03.883Z,33.58
2019-03-12T11:36:03.961Z,36.68
2019-03-12T11:37:03.845Z,38.83
2019-03-12T11:38:03.853Z,39.85
2019-03-12T11:39:03.807Z,34.87
2019-03-12T11:40:03.887Z,40.56
2019-03-12T11:41:03.893Z,40.84
2019-03-12T11:42:03.816Z,38.49
2019-03-12T11:43:03.775Z,36.97
2019-03-12T11:44:03.741Z,38.00
2019-03-12T11:45:13.113Z,32.75
2019-03-12T11:46:04.810Z,35.49
2019-03-12T11:47:03.789Z,34.34
2019-03-12T11:48:03.854Z,34.22
2019-03-12T11:49:03.834Z,37.49
2019-03-12T11:50:03.725Z,37.99
2019-03-12T11:51:03.706Z,36.24
2019-03-12T11:52:03.664Z,36.55
2019-03-12T11:53:03.957Z,33.80
2019-03-12T11:54:03.778Z,35.22
2019-03-12T11:55:03.653Z,37.95
2019-03-12T11:56:03.943Z,38.07
2019-03-12T11:57:03.598Z,35.21
2019-03-12T11:58:03.621Z,35.00
2019-03-12T11:59:04.010Z,37.95
2019-03-12T12:00:03.610Z,38.75
2019-03-12T12:01:03.846Z,38.22
2019-03-12T12:02:03.544Z,37.17
2019-03-12T12:03:03.682Z,39.57
2019-03-12T12:04:03.528Z,34.72
2019-03-12T12:05:03.558Z,35.86
2019-03-12T12:06:03.601Z,37.80
2019-03-12T12:07:03.602Z,32.48
2019-03-12T12:08:03.562Z,35.53
2019-03-12T12:09:03.811Z,37.64
2019-03-12T12:10:03.635Z,35.99
2019-03-12T12:11:03.505Z,32.84
2019-03-12T12:12:03.435Z,36.82
2019-03-12T12:13:03.431Z,31.15
2019-03-12T12:14:03.457Z,33.29
2019-03-12T12:15:03.412Z,35.21
2019-03-12T12:16:03.416Z,33.18
2019-03-12T12:17:03.392Z,35.41
2019-03-12T12:18:03.387Z,34.19
2019-03-12T12:19:03.395Z,39.67
2019-03-12T12:20:03.352Z,32.37
2019-03-12T12:21:03.345Z,33.29
2019-03-12T12:22:03.356Z,36.07
2019-03-12T12:23:03.311Z,35.36
2019-03-12T12:24:03.309Z,35.27
2019-03-12T12:25:03.281Z,33.95
2019-03-12T12:26:03.284Z,33.46
2019-03-12T12:27:03.277Z,35.58
2019-03-12T12:28:03.253Z,33.56
2019-03-12T12:29:03.237Z,34.27
2019-03-12T12:30:03.256Z,33.27
2019-03-12T12:31:03.232Z,37.02
2019-03-12T12:32:03.273Z,37.12
2019-03-12T12:33:03.277Z,37.21
2019-03-12T12:34:03.218Z,38.71
2019-03-12T12:35:03.176Z,38.79
2019-03-12T12:36:03.236Z,36.46
2019-03-12T12:37:03.171Z,36.44
2019-03-12T12:38:03.167Z,34.92
2019-03-12T12:39:03.156Z,33.29
2019-03-12T12:40:03.127Z,33.51
2019-03-12T12:41:03.113Z,32.60
2019-03-12T12:42:03.121Z,32.40
2019-03-12T12:43:03.149Z,32.60
2019-03-12T12:44:03.097Z,34.41
2019-03-12T12:45:03.140Z,35.33
2019-03-12T12:46:03.068Z,33.38
2019-03-12T12:47:03.104Z,36.30
2019-03-12T12:48:03.056Z,34.39
2019-03-12T12:49:03.041Z,32.48
2019-03-12T12:50:03.056Z,31.87
2019-03-12T12:51:03.885Z,34.30
2019-03-12T12:52:03.019Z,33.57